createdAt,value
2019-02-22T00:00:51.925Z,24.77
2019-02-22T00:03:19.681Z,23.50
2019-02-22T00:05:47.535Z,24.10
2019-02-22T00:08:15.277Z,24.47
2019-02-22T00:10:43.200Z,23.10
2019-02-22T00:13:11.011Z,24.37
2019-02-22T00:15:38.969Z,24.37
2019-02-22T00:18:06.748Z,24.03
2019-02-22T00:20:34.535Z,24.07
2019-02-22T00:23:02.348Z,24.03
2019-02-22T00:25:30.297Z,23.13
2019-02-22T00:27:58.049Z,22.53
2019-02-22T00:30:26.007Z,22.70
2019-02-22T00:32:53.789Z,22.43
2019-02-22T00:35:21.660Z,22.30
2019-02-22T00:37:49.601Z,23.00
2019-02-22T00:40:17.319Z,22.43
2019-02-22T00:42:45.352Z,21.67
2019-02-22T00:45:13.103Z,21.67
2019-02-22T00:47:40.835Z,22.60
2019-02-22T00:50:08.607Z,21.37
2019-02-22T00:52:36.539Z,22.53
2019-02-22T00:55:04.537Z,21.70
2019-02-22T00:57:32.442Z,22.33
2019-02-22T01:00:00.357Z,22.07
2019-02-22T01:02:28.445Z,22.30
2019-02-22T01:04:56.179Z,23.33
2019-02-22T01:07:23.948Z,22.10
2019-02-22T01:09:51.711Z,21.23
2019-02-22T01:12:19.483Z,22.20
2019-02-22T01:14:47.266Z,23.40
2019-02-22T01:17:15.196Z,23.50
2019-02-22T01:19:42.942Z,22.07
2019-02-22T01:22:10.888Z,23.63
2019-02-22T01:24:38.664Z,22.13
2019-02-22T01:27:06.616Z,23.07
2019-02-22T01:29:34.405Z,22.67
2019-02-22T01:32:02.391Z,22.10
2019-02-22T01:34:30.189Z,22.57
2019-02-22T01:36:58.010Z,22.40
2019-02-22T01:39:25.799Z,22.93
2019-02-22T01:41:53.753Z,22.73
2019-02-22T01:44:22.055Z,23.53
2019-02-22T01:46:50.031Z,22.77
2019-02-22T01:49:17.935Z,21.43
2019-02-22T01:51:45.927Z,22.10
2019-02-22T01:54:13.675Z,20.97
2019-02-22T01:56:41.499Z,21.77
2019-02-22T01:59:09.249Z,21.30
2019-02-22T02:01:37.456Z,20.70
2019-02-22T02:04:05.238Z,21.60
2019-02-22T02:06:33.199Z,21.80
2019-02-22T02:09:00.929Z,21.27
2019-02-22T02:11:28.869Z,20.67
2019-02-22T02:13:56.860Z,20.63
2019-02-22T02:16:24.652Z,20.57
2019-02-22T02:18:52.606Z,21.17
2019-02-22T02:21:20.361Z,22.37
2019-02-22T02:23:48.108Z,20.57
2019-02-22T02:26:16.098Z,20.73
2019-02-22T02:28:44.013Z,21.20
2019-02-22T02:31:11.932Z,21.27
2019-02-22T02:33:39.891Z,21.73
2019-02-22T02:36:07.675Z,20.37
2019-02-22T02:38:35.596Z,21.87
2019-02-22T02:41:08.438Z,21.30
2019-02-22T02:43:33.158Z,21.13
2019-02-22T02:46:00.961Z,20.43
2019-02-22T02:48:28.718Z,19.73
2019-02-22T02:50:56.543Z,19.90
2019-02-22T02:53:24.483Z,19.77
2019-02-22T02:55:52.216Z,20.27
2019-02-22T02:58:20.186Z,19.03
2019-02-22T03:00:47.935Z,19.43
2019-02-22T03:03:15.887Z,20.07
2019-02-22T03:06:01.652Z,19.87
2019-02-22T03:08:32.948Z,19.40
2019-02-22T03:11:00.701Z,20.07
2019-02-22T03:13:28.768Z,20.43
2019-02-22T03:15:56.530Z,20.77
2019-02-22T03:18:24.288Z,19.43
2019-02-22T03:20:52.032Z,20.50
2019-02-22T03:23:20.000Z,19.87
2019-02-22T03:25:47.986Z,20.83
2019-02-22T03:28:15.907Z,20.30
2019-02-22T03:30:43.655Z,19.63
2019-02-22T03:33:11.473Z,19.97
2019-02-22T03:35:39.266Z,19.97
2019-02-22T03:38:07.038Z,18.53
2019-02-22T03:40:34.800Z,19.27
2019-02-22T03:43:02.610Z,18.33
2019-02-22T03:45:30.358Z,19.57
2019-02-22T03:47:58.298Z,18.07
2019-02-22T03:50:26.112Z,19.57
2019-02-22T03:53:08.828Z,18.10
2019-02-22T03:55:36.754Z,19.07
2019-02-22T03:58:04.698Z,19.70
2019-02-22T04:00:32.681Z,19.00
2019-02-22T04:03:00.597Z,20.07
2019-02-22T04:05:28.392Z,19.73
2019-02-22T04:07:56.390Z,20.57
2019-02-22T04:10:24.299Z,20.83
2019-02-22T04:12:52.079Z,20.27
2019-02-22T04:15:19.840Z,19.90
2019-02-22T04:17:47.630Z,20.90
2019-02-22T04:20:15.373Z,20.80
2019-02-22T04:22:44.337Z,22.00
2019-02-22T04:25:12.407Z,19.63
2019-02-22T04:27:40.369Z,19.57
2019-02-22T04:30:08.701Z,21.00
2019-02-22T04:32:36.491Z,19.53
2019-02-22T04:35:04.636Z,18.07
2019-02-22T04:37:32.453Z,18.17
2019-02-22T04:40:00.441Z,16.90
2019-02-22T04:42:28.302Z,15.37
2019-02-22T04:44:56.035Z,15.50
2019-02-22T04:47:23.802Z,15.17
2019-02-22T04:49:51.574Z,14.90
2019-02-22T04:52:19.337Z,13.77
2019-02-22T04:54:47.249Z,13.73
2019-02-22T04:57:15.035Z,13.53
2019-02-22T04:59:42.950Z,14.20
2019-02-22T05:02:10.727Z,13.40
2019-02-22T05:04:38.637Z,13.27
2019-02-22T05:07:06.425Z,12.93
2019-02-22T05:09:34.303Z,12.30
2019-02-22T05:12:10.353Z,12.53
2019-02-22T05:14:31.747Z,13.00
2019-02-22T05:16:59.561Z,12.90
2019-02-22T05:19:27.364Z,12.20
2019-02-22T05:21:55.120Z,12.80
2019-02-22T05:24:23.093Z,12.43
2019-02-22T05:26:50.863Z,10.37
2019-02-22T05:29:18.795Z,10.47
2019-02-22T05:31:46.751Z,10.23
2019-02-22T05:34:14.473Z,9.07
2019-02-22T05:36:44.254Z,10.20
2019-02-22T05:39:19.097Z,11.30
2019-02-22T05:41:44.409Z,13.50
2019-02-22T05:44:12.392Z,13.10
2019-02-22T05:46:40.159Z,12.57
2019-02-22T05:49:08.131Z,12.13
2019-02-22T05:51:36.030Z,12.00
2019-02-22T05:54:03.788Z,12.37
2019-02-22T05:56:31.687Z,11.10
2019-02-22T05:58:59.449Z,12.00
2019-02-22T06:01:27.210Z,11.10
2019-02-22T06:03:54.972Z,11.13
2019-02-22T06:06:22.740Z,11.07
2019-02-22T06:08:50.528Z,10.90
2019-02-22T06:11:18.455Z,10.43
2019-02-22T06:13:46.235Z,10.77
2019-02-22T06:16:13.977Z,10.83
2019-02-22T06:18:41.797Z,10.87
2019-02-22T06:21:09.591Z,11.63
2019-02-22T06:23:37.377Z,11.57
2019-02-22T06:26:05.123Z,11.80
2019-02-22T06:28:32.879Z,11.97
2019-02-22T06:31:00.809Z,12.40
2019-02-22T06:33:28.583Z,12.13
2019-02-22T06:35:56.394Z,12.30
2019-02-22T06:38:24.207Z,12.33
2019-02-22T06:40:52.200Z,11.93
2019-02-22T06:43:19.919Z,11.57
2019-02-22T06:45:48.133Z,11.40
2019-02-22T06:48:15.927Z,10.87
2019-02-22T06:50:43.687Z,10.97
2019-02-22T06:53:11.473Z,10.70
2019-02-22T06:55:39.273Z,10.47
2019-02-22T06:58:07.362Z,10.27
2019-02-22T07:00:35.346Z,9.20
2019-02-22T07:03:03.092Z,9.43
2019-02-22T07:05:30.862Z,9.80
2019-02-22T07:07:58.854Z,8.70
2019-02-22T07:10:26.835Z,8.77
2019-02-22T07:12:59.007Z,8.00
2019-02-22T07:15:26.808Z,9.13
2019-02-22T07:17:54.551Z,9.33
2019-02-22T07:20:22.342Z,7.60
2019-02-22T07:22:50.123Z,7.87
2019-02-22T07:25:17.953Z,7.97
2019-02-22T07:27:45.805Z,8.63
2019-02-22T07:30:13.680Z,7.63
2019-02-22T07:32:41.755Z,7.17
2019-02-22T07:35:10.004Z,7.23
2019-02-22T07:37:37.796Z,7.53
2019-02-22T07:40:05.905Z,7.43
2019-02-22T07:42:33.667Z,7.30
2019-02-22T07:45:01.445Z,7.10
2019-02-22T07:47:29.376Z,6.93
2019-02-22T07:49:57.195Z,7.27
2019-02-22T07:52:25.066Z,6.63
2019-02-22T07:54:52.891Z,6.70
2019-02-22T07:57:20.894Z,7.10
2019-02-22T07:59:48.623Z,7.30
2019-02-22T08:02:16.589Z,6.47
2019-02-22T08:04:44.384Z,7.10
2019-02-22T08:07:12.377Z,6.50
2019-02-22T08:09:43.991Z,6.67
2019-02-22T08:12:12.080Z,5.50
2019-02-22T08:14:39.911Z,6.37
2019-02-22T08:17:07.715Z,6.63
2019-02-22T08:19:35.483Z,6.33
2019-02-22T08:22:03.698Z,6.53
2019-02-22T08:24:31.495Z,6.87
2019-02-22T08:26:59.269Z,6.93
2019-02-22T08:29:27.289Z,6.67
2019-02-22T08:31:55.098Z,6.67
2019-02-22T08:34:22.828Z,6.27
2019-02-22T08:36:50.596Z,6.57
2019-02-22T08:39:18.355Z,6.30
2019-02-22T08:41:46.153Z,6.60
2019-02-22T08:44:13.961Z,7.63
2019-02-22T08:46:41.764Z,7.23
2019-02-22T08:49:09.519Z,7.33
2019-02-22T08:51:37.359Z,8.30
2019-02-22T08:54:05.528Z,9.07
2019-02-22T08:56:33.325Z,9.10
2019-02-22T08:59:01.075Z,8.90
2019-02-22T09:01:28.826Z,9.13
2019-02-22T09:03:56.557Z,9.30
2019-02-22T09:06:24.408Z,9.20
2019-02-22T09:08:52.215Z,9.90
2019-02-22T09:11:20.042Z,9.07
2019-02-22T09:13:48.051Z,8.70
2019-02-22T09:16:15.932Z,9.83
2019-02-22T09:18:45.281Z,9.07
2019-02-22T09:21:13.126Z,8.60
2019-02-22T09:23:40.877Z,8.93
2019-02-22T09:26:08.702Z,8.57
2019-02-22T09:28:36.528Z,8.13
2019-02-22T09:31:04.309Z,7.43
2019-02-22T09:33:32.198Z,9.00
2019-02-22T09:35:59.968Z,7.63
2019-02-22T09:38:27.744Z,7.83
2019-02-22T09:40:55.534Z,7.23
2019-02-22T09:43:23.259Z,6.70
2019-02-22T09:45:51.046Z,6.37
2019-02-22T09:48:18.809Z,6.57
2019-02-22T09:50:46.571Z,6.90
2019-02-22T09:53:14.340Z,6.20
2019-02-22T09:55:42.126Z,5.97
2019-02-22T09:58:09.885Z,6.47
2019-02-22T10:00:37.641Z,6.30
2019-02-22T10:03:05.404Z,5.90
2019-02-22T10:05:33.145Z,6.40
2019-02-22T10:08:00.923Z,6.00
2019-02-22T10:10:28.676Z,5.67
2019-02-22T10:12:56.457Z,6.30
2019-02-22T10:15:24.277Z,5.80
2019-02-22T10:17:52.041Z,6.20
2019-02-22T10:20:19.854Z,6.00
2019-02-22T10:22:47.703Z,6.07
2019-02-22T10:25:15.561Z,6.80
2019-02-22T10:27:43.355Z,6.40
2019-02-22T10:30:11.158Z,6.40
2019-02-22T10:32:42.843Z,6.80
2019-02-22T10:35:11.718Z,7.00
2019-02-22T10:37:39.528Z,5.70
2019-02-22T10:40:07.461Z,5.77
2019-02-22T10:42:35.247Z,5.50
2019-02-22T10:45:03.267Z,5.00
2019-02-22T10:47:31.031Z,5.37
2019-02-22T10:49:58.838Z,4.73
2019-02-22T10:52:26.606Z,4.50
2019-02-22T10:54:54.357Z,4.37
2019-02-22T10:57:22.159Z,4.20
2019-02-22T10:59:49.942Z,3.77
2019-02-22T11:02:17.777Z,3.70
2019-02-22T11:04:45.540Z,4.03
2019-02-22T11:07:13.784Z,4.00
2019-02-22T11:09:41.576Z,3.87
2019-02-22T11:12:09.360Z,4.07
2019-02-22T11:14:37.165Z,3.90
2019-02-22T11:17:04.964Z,3.40
2019-02-22T11:19:32.777Z,2.80
2019-02-22T11:22:00.540Z,3.33
2019-02-22T11:24:28.373Z,3.50
2019-02-22T11:26:56.149Z,4.23
2019-02-22T11:29:23.911Z,4.37
2019-02-22T11:31:51.932Z,4.60
2019-02-22T11:34:19.692Z,4.50
2019-02-22T11:36:47.559Z,4.90
2019-02-22T11:39:15.331Z,5.00
2019-02-22T11:41:43.145Z,6.07
2019-02-22T11:44:12.282Z,5.23
2019-02-22T11:46:40.363Z,5.30
2019-02-22T11:49:08.140Z,5.20
2019-02-22T11:51:36.359Z,5.37
2019-02-22T11:54:04.103Z,5.60
2019-02-22T11:56:32.226Z,5.50
2019-02-22T11:59:00.027Z,5.47
2019-02-22T12:01:27.913Z,5.57
2019-02-22T12:03:55.778Z,5.37
2019-02-22T12:06:23.612Z,5.70
2019-02-22T12:08:51.469Z,5.43
2019-02-22T12:11:19.311Z,5.77
2019-02-22T12:13:47.147Z,5.63
2019-02-22T12:16:14.957Z,5.57
2019-02-22T12:18:42.767Z,5.40
2019-02-22T12:21:10.864Z,6.10
2019-02-22T12:23:38.658Z,6.17
2019-02-22T12:26:06.501Z,5.80
2019-02-22T12:28:34.230Z,6.67
2019-02-22T12:31:02.397Z,6.33
2019-02-22T12:33:31.342Z,6.13
2019-02-22T12:35:59.055Z,6.37
2019-02-22T12:38:28.250Z,6.43
2019-02-22T12:40:56.193Z,6.90
2019-02-22T12:43:23.967Z,5.87
2019-02-22T12:45:51.692Z,6.37
2019-02-22T12:48:19.499Z,6.40
2019-02-22T12:50:47.233Z,5.90
2019-02-22T12:53:15.015Z,6.10
2019-02-22T12:55:42.761Z,6.20
2019-02-22T12:58:10.851Z,5.90
2019-02-22T13:00:38.671Z,6.30
2019-02-22T13:03:06.438Z,5.67
2019-02-22T13:05:34.277Z,6.03
2019-02-22T13:08:02.056Z,6.50
2019-02-22T13:10:29.801Z,6.00
2019-02-22T13:12:57.581Z,6.73
2019-02-22T13:15:25.361Z,6.60
2019-02-22T13:17:53.175Z,6.10
2019-02-22T13:20:20.938Z,6.23
2019-02-22T13:22:48.774Z,7.13
2019-02-22T13:25:16.528Z,6.87
2019-02-22T13:27:44.372Z,6.20
2019-02-22T13:30:12.244Z,6.67
2019-02-22T13:32:40.025Z,6.63
2019-02-22T13:35:10.696Z,6.53
2019-02-22T13:37:37.804Z,6.90
2019-02-22T13:40:07.744Z,7.23
2019-02-22T13:42:35.640Z,7.20
2019-02-22T13:45:03.775Z,6.73
2019-02-22T13:47:31.570Z,7.30
2019-02-22T13:49:59.353Z,7.03
2019-02-22T13:52:27.207Z,7.50
2019-02-22T13:54:54.990Z,7.67
2019-02-22T13:57:22.814Z,7.67
2019-02-22T13:59:50.613Z,6.50
2019-02-22T14:02:19.764Z,6.27
2019-02-22T14:04:47.573Z,6.70
2019-02-22T14:07:15.356Z,6.23
2019-02-22T14:09:43.126Z,6.63
2019-02-22T14:12:10.955Z,7.60
2019-02-22T14:14:38.717Z,6.50
2019-02-22T14:17:06.482Z,7.23
2019-02-22T14:19:34.241Z,6.70
2019-02-22T14:22:02.026Z,7.77
2019-02-22T14:24:29.801Z,7.10
2019-02-22T14:26:57.579Z,7.27
2019-02-22T14:29:25.348Z,7.00
2019-02-22T14:31:53.157Z,7.30
2019-02-22T14:34:20.961Z,7.40
2019-02-22T14:36:48.852Z,7.20
2019-02-22T14:39:16.620Z,6.67
2019-02-22T14:41:45.564Z,7.53
2019-02-22T14:44:13.341Z,6.57
2019-02-22T14:46:41.130Z,6.63
2019-02-22T14:49:08.894Z,6.37
2019-02-22T14:51:36.628Z,6.87
2019-02-22T14:54:04.410Z,6.80
2019-02-22T14:56:32.176Z,6.60
2019-02-22T14:58:59.956Z,6.70
2019-02-22T15:01:27.716Z,6.20
2019-02-22T15:03:55.524Z,6.90
2019-02-22T15:06:23.310Z,6.23
2019-02-22T15:08:51.168Z,7.03
2019-02-22T15:11:19.018Z,7.13
2019-02-22T15:13:46.875Z,7.03
2019-02-22T15:16:32.977Z,7.07
2019-02-22T15:19:00.783Z,6.73
2019-02-22T15:21:28.551Z,6.97
2019-02-22T15:23:56.289Z,6.67
2019-02-22T15:26:24.060Z,7.07
2019-02-22T15:28:51.861Z,7.17
2019-02-22T15:31:19.598Z,6.53
2019-02-22T15:33:47.383Z,6.13
2019-02-22T15:36:16.102Z,6.40
2019-02-22T15:38:44.156Z,5.67
2019-02-22T15:41:12.005Z,6.13
2019-02-22T15:43:39.861Z,5.67
2019-02-22T15:46:12.134Z,5.03
2019-02-22T15:48:37.375Z,5.60
2019-02-22T15:51:07.251Z,5.10
2019-02-22T15:53:34.786Z,4.77
2019-02-22T15:56:02.573Z,4.93
2019-02-22T15:58:30.329Z,5.27
2019-02-22T16:00:58.105Z,5.30
2019-02-22T16:03:28.118Z,4.80
2019-02-22T16:05:55.913Z,5.30
2019-02-22T16:08:23.702Z,5.27
2019-02-22T16:10:51.486Z,5.40
2019-02-22T16:13:19.273Z,5.50
2019-02-22T16:15:47.204Z,5.13
2019-02-22T16:18:15.029Z,5.30
2019-02-22T16:20:42.843Z,5.40
2019-02-22T16:23:10.613Z,5.60
2019-02-22T16:25:38.452Z,5.80
2019-02-22T16:28:06.181Z,5.60
2019-02-22T16:30:35.393Z,6.60
2019-02-22T16:33:03.234Z,5.77
2019-02-22T16:35:31.001Z,6.10
2019-02-22T16:37:58.781Z,6.50
2019-02-22T16:40:26.544Z,6.40
2019-02-22T16:42:54.292Z,6.23
2019-02-22T16:45:22.198Z,6.73
2019-02-22T16:47:49.958Z,6.57
2019-02-22T16:50:17.713Z,6.53
2019-02-22T16:52:45.582Z,6.53
2019-02-22T16:55:13.874Z,7.37
2019-02-22T16:57:41.628Z,7.00
2019-02-22T17:00:11.567Z,7.23
2019-02-22T17:02:39.327Z,7.90
2019-02-22T17:05:08.976Z,7.03
2019-02-22T17:07:36.735Z,7.50
2019-02-22T17:10:05.391Z,6.87
2019-02-22T17:12:33.128Z,7.37
2019-02-22T17:15:01.045Z,7.40
2019-02-22T17:17:28.804Z,7.47
2019-02-22T17:19:56.581Z,8.33
2019-02-22T17:22:24.352Z,7.63
2019-02-22T17:24:52.301Z,7.83
2019-02-22T17:27:20.089Z,8.37
2019-02-22T17:29:47.835Z,8.70
2019-02-22T17:32:15.612Z,8.03
2019-02-22T17:34:45.477Z,7.90
2019-02-22T17:37:13.386Z,8.37
2019-02-22T17:39:41.294Z,8.33
2019-02-22T17:42:09.249Z,8.43
2019-02-22T17:44:37.019Z,9.27
2019-02-22T17:47:06.578Z,9.27
2019-02-22T17:49:34.670Z,9.83
2019-02-22T17:52:02.599Z,10.07
2019-02-22T17:54:30.362Z,10.47
2019-02-22T17:56:58.167Z,10.47
2019-02-22T17:59:28.304Z,11.30
2019-02-22T18:01:56.253Z,10.77
2019-02-22T18:04:24.045Z,11.47
2019-02-22T18:06:51.991Z,11.47
2019-02-22T18:09:19.967Z,11.00
2019-02-22T18:11:47.880Z,11.23
2019-02-22T18:14:15.660Z,12.00
2019-02-22T18:16:44.576Z,11.77
2019-02-22T18:19:12.320Z,11.03
2019-02-22T18:21:40.054Z,12.47
2019-02-22T18:24:07.863Z,12.17
2019-02-22T18:26:37.683Z,12.13
2019-02-22T18:29:05.290Z,12.07
2019-02-22T18:31:33.182Z,11.87
2019-02-22T18:34:00.938Z,11.80
2019-02-22T18:36:28.764Z,12.97
2019-02-22T18:38:56.577Z,12.20
2019-02-22T18:41:24.343Z,12.33
2019-02-22T18:43:52.106Z,12.67
2019-02-22T18:46:20.303Z,12.00
2019-02-22T18:48:48.016Z,12.40
2019-02-22T18:51:15.855Z,11.67
2019-02-22T18:53:43.588Z,12.40
2019-02-22T18:56:11.385Z,12.10
2019-02-22T18:58:39.144Z,12.10
2019-02-22T19:01:06.954Z,13.27
2019-02-22T19:03:34.701Z,12.43
2019-02-22T19:06:02.513Z,13.23
2019-02-22T19:08:32.637Z,13.13
2019-02-22T19:11:00.635Z,11.93
2019-02-22T19:13:28.429Z,12.30
2019-02-22T19:15:56.175Z,12.90
2019-02-22T19:18:23.960Z,11.90
2019-02-22T19:20:51.779Z,12.67
2019-02-22T19:23:19.542Z,11.53
2019-02-22T19:25:47.355Z,11.93
2019-02-22T19:28:15.871Z,12.20
2019-02-22T19:30:43.681Z,12.47
2019-02-22T19:33:11.432Z,12.67
2019-02-22T19:35:39.238Z,12.50
2019-02-22T19:38:07.002Z,11.90
2019-02-22T19:40:34.814Z,13.00
2019-02-22T19:43:02.596Z,12.47
2019-02-22T19:45:30.374Z,12.97
2019-02-22T19:47:58.184Z,12.30
2019-02-22T19:50:26.009Z,12.33
2019-02-22T19:52:53.790Z,13.67
2019-02-22T19:55:21.680Z,14.53
2019-02-22T19:57:49.456Z,14.17
2019-02-22T20:00:17.241Z,14.43
2019-02-22T20:02:45.073Z,15.40
2019-02-22T20:05:13.076Z,14.87
2019-02-22T20:07:42.522Z,16.57
2019-02-22T20:10:17.890Z,16.30
2019-02-22T20:12:41.860Z,16.03
2019-02-22T20:15:11.657Z,16.90
2019-02-22T20:17:40.334Z,17.23
2019-02-22T20:20:10.961Z,17.87
2019-02-22T20:22:39.624Z,17.93
2019-02-22T20:25:07.484Z,19.70
2019-02-22T20:27:35.335Z,19.80
2019-02-22T20:30:03.299Z,18.57
2019-02-22T20:32:31.141Z,19.50
2019-02-22T20:34:58.966Z,18.27
2019-02-22T20:37:26.776Z,19.07
2019-02-22T20:39:54.613Z,18.53
2019-02-22T20:42:22.477Z,19.37
2019-02-22T20:44:50.272Z,19.07
2019-02-22T20:47:18.152Z,19.43
2019-02-22T20:49:45.981Z,19.00
2019-02-22T20:52:13.853Z,18.93
2019-02-22T20:54:41.652Z,19.83
2019-02-22T20:57:09.453Z,19.80
2019-02-22T20:59:37.359Z,19.57
2019-02-22T21:02:05.180Z,18.80
2019-02-22T21:04:32.989Z,18.70
2019-02-22T21:07:00.798Z,19.30
2019-02-22T21:09:28.634Z,19.57
2019-02-22T21:11:57.163Z,20.50
2019-02-22T21:14:25.027Z,19.63
2019-02-22T21:16:52.861Z,21.03
2019-02-22T21:19:20.709Z,20.00
2019-02-22T21:21:48.502Z,20.37
2019-02-22T21:24:16.311Z,19.70
2019-02-22T21:26:44.117Z,20.80
2019-02-22T21:29:11.934Z,21.87
2019-02-22T21:31:39.825Z,20.70
2019-02-22T21:34:07.641Z,20.37
2019-02-22T21:36:35.438Z,18.50
2019-02-22T21:39:03.840Z,18.00
2019-02-22T21:41:31.612Z,15.47
2019-02-22T21:43:59.410Z,17.40
2019-02-22T21:46:28.870Z,15.60
2019-02-22T21:48:56.773Z,14.40
2019-02-22T21:51:24.524Z,14.10
2019-02-22T21:53:52.312Z,12.07
2019-02-22T21:56:20.084Z,11.73
2019-02-22T21:58:48.855Z,11.67
2019-02-22T22:01:16.852Z,11.10
2019-02-22T22:03:44.618Z,11.23
2019-02-22T22:06:12.434Z,11.73
2019-02-22T22:08:40.218Z,11.60
2019-02-22T22:11:08.040Z,10.67
2019-02-22T22:13:35.837Z,11.67
2019-02-22T22:16:03.671Z,10.60
2019-02-22T22:18:38.508Z,10.83
2019-02-22T22:21:01.179Z,10.07
2019-02-22T22:23:28.967Z,9.83
2019-02-22T22:25:56.738Z,10.73
2019-02-22T22:28:24.525Z,10.30
2019-02-22T22:30:52.341Z,11.27
2019-02-22T22:33:20.116Z,10.10
2019-02-22T22:35:47.908Z,11.03
2019-02-22T22:38:15.695Z,11.03
2019-02-22T22:40:43.463Z,10.47
2019-02-22T22:43:11.686Z,9.63
2019-02-22T22:45:39.517Z,10.10
2019-02-22T22:48:07.291Z,10.57
2019-02-22T22:50:35.064Z,9.57
2019-02-22T22:53:02.845Z,9.83
2019-02-22T22:55:30.632Z,9.90
2019-02-22T22:57:58.401Z,9.57
2019-02-22T23:00:46.639Z,9.40
2019-02-22T23:03:14.526Z,9.97
2019-02-22T23:05:42.325Z,9.57
2019-02-22T23:08:10.077Z,9.17
2019-02-22T23:10:37.886Z,9.23
2019-02-22T23:13:05.632Z,10.60
2019-02-22T23:15:33.424Z,10.10
2019-02-22T23:18:01.196Z,9.87
2019-02-22T23:20:28.971Z,9.77
2019-02-22T23:22:56.717Z,10.10
2019-02-22T23:25:24.519Z,9.87
2019-02-22T23:27:52.277Z,10.07
2019-02-22T23:30:20.002Z,9.70
2019-02-22T23:32:47.796Z,9.97
2019-02-22T23:35:15.550Z,10.03
2019-02-22T23:37:43.394Z,10.00
2019-02-22T23:40:11.171Z,10.30
2019-02-22T23:42:38.968Z,9.77
2019-02-22T23:45:06.794Z,9.57
2019-02-22T23:47:34.644Z,9.00
2019-02-22T23:50:02.473Z,8.63
2019-02-22T23:52:30.272Z,9.43
2019-02-22T23:54:58.008Z,8.67
2019-02-22T23:57:26.566Z,9.07
2019-02-22T23:59:54.306Z,7.73
